sensor_id;sensor_type;location;lat;lon;timestamp;P1;durP1;ratioP1;P2;durP2;ratioP2
4585;SDS011;2305;50.118;8.952;2023-11-21T00:00:52;8.27;;;1.67;;
4585;SDS011;2305;50.118;8.952;2023-11-21T00:03:23;3.93;;;1.67;;
4585;SDS011;2305;50.118;8.952;2023-11-21T00:05:51;3.23;;;1.40;;
4585;SDS011;2305;50.118;8.952;2023-11-21T00:08:20;3.50;;;2.20;;
4585;SDS011;2305;50.118;8.952;2023-11-21T00:10:48;4.27;;;1.60;;
4585;SDS011;2305;50.118;8.952;2023-11-21T00:13:18;1.70;;;1.30;;
4585;SDS011;2305;50.118;8.952;2023-11-21T00:15:46;5.77;;;1.93;;
4585;SDS011;2305;50.118;8.952;2023-11-21T00:18:17;11.27;;;1.97;;
4585;SDS011;2305;50.118;8.952;2023-11-21T00:20:45;2.80;;;1.70;;
4585;SDS011;2305;50.118;8.952;2023-11-21T00:23:13;4.77;;;1.97;;
4585;SDS011;2305;50.118;8.952;2023-11-21T00:25:43;6.37;;;2.13;;
4585;SDS011;2305;50.118;8.952;2023-11-21T00:28:11;10.27;;;1.90;;
4585;SDS011;2305;50.118;8.952;2023-11-21T00:30:40;6.43;;;2.37;;
4585;SDS011;2305;50.118;8.952;2023-11-21T00:33:08;4.40;;;1.57;;
4585;SDS011;2305;50.118;8.952;2023-11-21T00:35:36;6.40;;;1.70;;
4585;SDS011;2305;50.118;8.952;2023-11-21T00:38:04;3.60;;;1.47;;
4585;SDS011;2305;50.118;8.952;2023-11-21T00:40:35;4.87;;;1.77;;
4585;SDS011;2305;50.118;8.952;2023-11-21T00:43:05;4.90;;;1.50;;
4585;SDS011;2305;50.118;8.952;2023-11-21T00:45:33;2.60;;;1.80;;
4585;SDS011;2305;50.118;8.952;2023-11-21T00:48:03;6.03;;;1.80;;
4585;SDS011;2305;50.118;8.952;2023-11-21T00:50:32;5.90;;;1.70;;
4585;SDS011;2305;50.118;8.952;2023-11-21T00:53:00;3.77;;;1.60;;
4585;SDS011;2305;50.118;8.952;2023-11-21T00:55:28;13.43;;;2.20;;
4585;SDS011;2305;50.118;8.952;2023-11-21T00:57:59;5.67;;;2.13;;
4585;SDS011;2305;50.118;8.952;2023-11-21T01:00:30;8.23;;;2.03;;
4585;SDS011;2305;50.118;8.952;2023-11-21T01:03:01;9.30;;;2.37;;
4585;SDS011;2305;50.118;8.952;2023-11-21T01:05:32;2.50;;;1.80;;
4585;SDS011;2305;50.118;8.952;2023-11-21T01:08:00;6.97;;;2.57;;
4585;SDS011;2305;50.118;8.952;2023-11-21T01:10:29;7.83;;;2.10;;
4585;SDS011;2305;50.118;8.952;2023-11-21T01:12:57;4.47;;;1.70;;
4585;SDS011;2305;50.118;8.952;2023-11-21T01:15:25;4.20;;;1.63;;
4585;SDS011;2305;50.118;8.952;2023-11-21T01:17:57;5.20;;;2.20;;
4585;SDS011;2305;50.118;8.952;2023-11-21T01:20:25;4.63;;;1.97;;
4585;SDS011;2305;50.118;8.952;2023-11-21T01:22:53;4.47;;;2.10;;
4585;SDS011;2305;50.118;8.952;2023-11-21T01:25:22;5.20;;;2.00;;
4585;SDS011;2305;50.118;8.952;2023-11-21T01:27:50;4.17;;;1.80;;
4585;SDS011;2305;50.118;8.952;2023-11-21T01:30:18;4.60;;;2.00;;
4585;SDS011;2305;50.118;8.952;2023-11-21T01:32:46;8.33;;;2.00;;
4585;SDS011;2305;50.118;8.952;2023-11-21T01:35:18;7.80;;;2.20;;
4585;SDS011;2305;50.118;8.952;2023-11-21T01:37:46;8.67;;;2.97;;
4585;SDS011;2305;50.118;8.952;2023-11-21T01:40:17;5.20;;;1.80;;
4585;SDS011;2305;50.118;8.952;2023-11-21T01:42:45;2.83;;;1.60;;
4585;SDS011;2305;50.118;8.952;2023-11-21T01:45:14;2.80;;;1.80;;
4585;SDS011;2305;50.118;8.952;2023-11-21T01:47:42;3.80;;;2.00;;
4585;SDS011;2305;50.118;8.952;2023-11-21T01:50:13;2.80;;;1.60;;
4585;SDS011;2305;50.118;8.952;2023-11-21T01:52:45;5.57;;;2.63;;
4585;SDS011;2305;50.118;8.952;2023-11-21T01:55:16;5.30;;;2.03;;
4585;SDS011;2305;50.118;8.952;2023-11-21T01:57:56;5.00;;;2.27;;
4585;SDS011;2305;50.118;8.952;2023-11-21T02:00:26;4.50;;;1.77;;
4585;SDS011;2305;50.118;8.952;2023-11-21T02:02:56;4.07;;;2.07;;
4585;SDS011;2305;50.118;8.952;2023-11-21T02:05:27;4.43;;;2.40;;
4585;SDS011;2305;50.118;8.952;2023-11-21T02:07:59;3.40;;;2.40;;
4585;SDS011;2305;50.118;8.952;2023-11-21T02:10:27;8.27;;;2.63;;
4585;SDS011;2305;50.118;8.952;2023-11-21T02:12:58;3.53;;;1.70;;
4585;SDS011;2305;50.118;8.952;2023-11-21T02:15:29;2.83;;;1.90;;
4585;SDS011;2305;50.118;8.952;2023-11-21T02:17:57;2.50;;;1.87;;
4585;SDS011;2305;50.118;8.952;2023-11-21T02:20:26;4.13;;;2.20;;
4585;SDS011;2305;50.118;8.952;2023-11-21T02:22:57;4.00;;;2.13;;
4585;SDS011;2305;50.118;8.952;2023-11-21T02:25:27;3.27;;;2.20;;
4585;SDS011;2305;50.118;8.952;2023-11-21T02:27:57;8.10;;;2.27;;
4585;SDS011;2305;50.118;8.952;2023-11-21T02:30:29;3.60;;;2.07;;
4585;SDS011;2305;50.118;8.952;2023-11-21T02:32:59;8.50;;;2.33;;
4585;SDS011;2305;50.118;8.952;2023-11-21T02:35:30;7.17;;;2.33;;
4585;SDS011;2305;50.118;8.952;2023-11-21T02:38:00;2.43;;;2.00;;
4585;SDS011;2305;50.118;8.952;2023-11-21T02:40:30;3.40;;;2.10;;
4585;SDS011;2305;50.118;8.952;2023-11-21T02:42:59;5.20;;;2.37;;
4585;SDS011;2305;50.118;8.952;2023-11-21T02:45:27;4.63;;;2.47;;
4585;SDS011;2305;50.118;8.952;2023-11-21T02:47:57;4.77;;;2.30;;
4585;SDS011;2305;50.118;8.952;2023-11-21T02:50:26;4.40;;;2.17;;
4585;SDS011;2305;50.118;8.952;2023-11-21T02:52:54;4.77;;;2.20;;
4585;SDS011;2305;50.118;8.952;2023-11-21T02:55:25;4.50;;;2.53;;
4585;SDS011;2305;50.118;8.952;2023-11-21T02:57:53;2.57;;;1.90;;
4585;SDS011;2305;50.118;8.952;2023-11-21T03:00:23;4.87;;;2.30;;
4585;SDS011;2305;50.118;8.952;2023-11-21T03:02:52;6.17;;;2.23;;
4585;SDS011;2305;50.118;8.952;2023-11-21T03:05:23;8.03;;;2.57;;
4585;SDS011;2305;50.118;8.952;2023-11-21T03:07:51;4.90;;;2.33;;
4585;SDS011;2305;50.118;8.952;2023-11-21T03:10:19;3.63;;;2.17;;
4585;SDS011;2305;50.118;8.952;2023-11-21T03:12:50;2.90;;;2.10;;
4585;SDS011;2305;50.118;8.952;2023-11-21T03:15:18;5.47;;;2.50;;
4585;SDS011;2305;50.118;8.952;2023-11-21T03:17:46;4.90;;;2.10;;
4585;SDS011;2305;50.118;8.952;2023-11-21T03:20:16;5.90;;;3.40;;
4585;SDS011;2305;50.118;8.952;2023-11-21T03:22:44;6.70;;;2.23;;
4585;SDS011;2305;50.118;8.952;2023-11-21T03:25:12;4.43;;;2.17;;
4585;SDS011;2305;50.118;8.952;2023-11-21T03:27:41;5.40;;;2.50;;
4585;SDS011;2305;50.118;8.952;2023-11-21T03:30:12;5.83;;;1.97;;
4585;SDS011;2305;50.118;8.952;2023-11-21T03:32:41;5.10;;;2.53;;
4585;SDS011;2305;50.118;8.952;2023-11-21T03:35:15;3.67;;;2.07;;
4585;SDS011;2305;50.118;8.952;2023-11-21T03:37:43;4.70;;;2.50;;
4585;SDS011;2305;50.118;8.952;2023-11-21T03:40:11;5.67;;;2.33;;
4585;SDS011;2305;50.118;8.952;2023-11-21T03:42:40;5.90;;;2.10;;
4585;SDS011;2305;50.118;8.952;2023-11-21T03:45:09;5.50;;;2.40;;
4585;SDS011;2305;50.118;8.952;2023-11-21T03:47:41;5.07;;;2.00;;
4585;SDS011;2305;50.118;8.952;2023-11-21T03:50:10;5.00;;;2.10;;
4585;SDS011;2305;50.118;8.952;2023-11-21T03:52:38;3.27;;;1.90;;
4585;SDS011;2305;50.118;8.952;2023-11-21T03:55:06;4.00;;;1.90;;
4585;SDS011;2305;50.118;8.952;2023-11-21T03:57:41;3.17;;;2.10;;
4585;SDS011;2305;50.118;8.952;2023-11-21T04:00:10;3.27;;;1.80;;
4585;SDS011;2305;50.118;8.952;2023-11-21T04:02:40;3.83;;;1.80;;
4585;SDS011;2305;50.118;8.952;2023-11-21T04:05:08;2.90;;;1.60;;
4585;SDS011;2305;50.118;8.952;2023-11-21T04:07:36;4.23;;;2.20;;
4585;SDS011;2305;50.118;8.952;2023-11-21T04:10:06;3.90;;;1.63;;
4585;SDS011;2305;50.118;8.952;2023-11-21T04:12:36;5.77;;;2.53;;
4585;SDS011;2305;50.118;8.952;2023-11-21T04:15:04;2.93;;;1.77;;
4585;SDS011;2305;50.118;8.952;2023-11-21T04:17:35;6.30;;;2.30;;
4585;SDS011;2305;50.118;8.952;2023-11-21T04:20:06;4.13;;;2.13;;
4585;SDS011;2305;50.118;8.952;2023-11-21T04:22:36;14.10;;;2.60;;
4585;SDS011;2305;50.118;8.952;2023-11-21T04:25:08;4.10;;;1.83;;
4585;SDS011;2305;50.118;8.952;2023-11-21T04:27:36;9.23;;;1.97;;
4585;SDS011;2305;50.118;8.952;2023-11-21T04:30:06;6.00;;;2.30;;
4585;SDS011;2305;50.118;8.952;2023-11-21T04:32:36;4.70;;;1.90;;
4585;SDS011;2305;50.118;8.952;2023-11-21T04:35:07;6.43;;;2.33;;
4585;SDS011;2305;50.118;8.952;2023-11-21T04:37:36;7.57;;;2.90;;
4585;SDS011;2305;50.118;8.952;2023-11-21T04:40:05;5.77;;;2.40;;
4585;SDS011;2305;50.118;8.952;2023-11-21T04:42:35;3.53;;;2.17;;
4585;SDS011;2305;50.118;8.952;2023-11-21T04:45:04;3.10;;;1.97;;
4585;SDS011;2305;50.118;8.952;2023-11-21T04:47:35;3.63;;;1.93;;
4585;SDS011;2305;50.118;8.952;2023-11-21T04:50:07;4.13;;;2.37;;
4585;SDS011;2305;50.118;8.952;2023-11-21T04:52:35;2.70;;;2.00;;
4585;SDS011;2305;50.118;8.952;2023-11-21T04:55:04;9.40;;;2.60;;
4585;SDS011;2305;50.118;8.952;2023-11-21T04:57:33;7.10;;;2.50;;
4585;SDS011;2305;50.118;8.952;2023-11-21T05:00:04;6.50;;;2.07;;
4585;SDS011;2305;50.118;8.952;2023-11-21T05:02:33;5.10;;;2.47;;
4585;SDS011;2305;50.118;8.952;2023-11-21T05:05:02;4.10;;;2.20;;
4585;SDS011;2305;50.118;8.952;2023-11-21T05:07:34;2.90;;;2.43;;
4585;SDS011;2305;50.118;8.952;2023-11-21T05:10:03;3.70;;;2.60;;
4585;SDS011;2305;50.118;8.952;2023-11-21T05:12:34;10.70;;;3.20;;
4585;SDS011;2305;50.118;8.952;2023-11-21T05:15:06;7.97;;;2.90;;
4585;SDS011;2305;50.118;8.952;2023-11-21T05:17:37;4.60;;;2.90;;
4585;SDS011;2305;50.118;8.952;2023-11-21T05:20:09;4.63;;;2.67;;
4585;SDS011;2305;50.118;8.952;2023-11-21T05:22:40;4.70;;;3.40;;
4585;SDS011;2305;50.118;8.952;2023-11-21T05:25:09;5.67;;;3.17;;
4585;SDS011;2305;50.118;8.952;2023-11-21T05:27:38;5.63;;;3.57;;
4585;SDS011;2305;50.118;8.952;2023-11-21T05:30:06;4.60;;;3.10;;
4585;SDS011;2305;50.118;8.952;2023-11-21T05:32:36;5.53;;;3.63;;
4585;SDS011;2305;50.118;8.952;2023-11-21T05:35:05;8.80;;;4.70;;
4585;SDS011;2305;50.118;8.952;2023-11-21T05:37:36;5.37;;;4.30;;
4585;SDS011;2305;50.118;8.952;2023-11-21T05:40:07;7.17;;;3.90;;
4585;SDS011;2305;50.118;8.952;2023-11-21T05:42:36;15.47;;;3.80;;
4585;SDS011;2305;50.118;8.952;2023-11-21T05:45:05;9.10;;;3.50;;
4585;SDS011;2305;50.118;8.952;2023-11-21T05:47:36;8.30;;;4.20;;
4585;SDS011;2305;50.118;8.952;2023-11-21T05:50:06;6.47;;;4.20;;
4585;SDS011;2305;50.118;8.952;2023-11-21T05:52:38;9.67;;;4.47;;
4585;SDS011;2305;50.118;8.952;2023-11-21T05:55:08;7.10;;;4.10;;
4585;SDS011;2305;50.118;8.952;2023-11-21T05:57:37;7.10;;;4.30;;
4585;SDS011;2305;50.118;8.952;2023-11-21T06:00:09;9.73;;;4.03;;
4585;SDS011;2305;50.118;8.952;2023-11-21T06:02:42;5.07;;;4.07;;
4585;SDS011;2305;50.118;8.952;2023-11-21T06:05:13;9.87;;;4.33;;
4585;SDS011;2305;50.118;8.952;2023-11-21T06:07:42;6.37;;;4.40;;
4585;SDS011;2305;50.118;8.952;2023-11-21T06:10:13;4.97;;;3.50;;
4585;SDS011;2305;50.118;8.952;2023-11-21T06:12:41;7.10;;;4.10;;
4585;SDS011;2305;50.118;8.952;2023-11-21T06:15:10;8.17;;;4.63;;
4585;SDS011;2305;50.118;8.952;2023-11-21T06:17:40;6.10;;;4.50;;
4585;SDS011;2305;50.118;8.952;2023-11-21T06:20:09;5.07;;;3.70;;
4585;SDS011;2305;50.118;8.952;2023-11-21T06:22:42;6.37;;;4.17;;
4585;SDS011;2305;50.118;8.952;2023-11-21T06:25:11;7.80;;;4.10;;
4585;SDS011;2305;50.118;8.952;2023-11-21T06:27:43;7.93;;;3.93;;
4585;SDS011;2305;50.118;8.952;2023-11-21T06:30:12;8.10;;;4.23;;
4585;SDS011;2305;50.118;8.952;2023-11-21T06:32:42;7.93;;;4.47;;
4585;SDS011;2305;50.118;8.952;2023-11-21T06:35:15;6.70;;;4.43;;
4585;SDS011;2305;50.118;8.952;2023-11-21T06:37:44;6.30;;;4.33;;
4585;SDS011;2305;50.118;8.952;2023-11-21T06:40:16;6.80;;;4.87;;
4585;SDS011;2305;50.118;8.952;2023-11-21T06:42:46;8.10;;;5.07;;
4585;SDS011;2305;50.118;8.952;2023-11-21T06:45:16;7.63;;;5.70;;
4585;SDS011;2305;50.118;8.952;2023-11-21T06:47:45;10.00;;;6.03;;
4585;SDS011;2305;50.118;8.952;2023-11-21T06:50:13;8.13;;;5.37;;
4585;SDS011;2305;50.118;8.952;2023-11-21T06:52:42;10.43;;;5.20;;
4585;SDS011;2305;50.118;8.952;2023-11-21T06:55:10;7.37;;;5.30;;
4585;SDS011;2305;50.118;8.952;2023-11-21T06:57:38;9.97;;;5.43;;
4585;SDS011;2305;50.118;8.952;2023-11-21T07:00:08;6.50;;;4.83;;
4585;SDS011;2305;50.118;8.952;2023-11-21T07:02:38;9.93;;;5.70;;
4585;SDS011;2305;50.118;8.952;2023-11-21T07:05:06;7.60;;;5.23;;
4585;SDS011;2305;50.118;8.952;2023-11-21T07:07:34;8.20;;;5.60;;
4585;SDS011;2305;50.118;8.952;2023-11-21T07:10:04;10.50;;;6.00;;
4585;SDS011;2305;50.118;8.952;2023-11-21T07:12:33;8.57;;;5.63;;
4585;SDS011;2305;50.118;8.952;2023-11-21T07:15:01;9.00;;;6.10;;
4585;SDS011;2305;50.118;8.952;2023-11-21T07:17:35;7.43;;;4.83;;
4585;SDS011;2305;50.118;8.952;2023-11-21T07:20:07;10.23;;;5.43;;
4585;SDS011;2305;50.118;8.952;2023-11-21T07:22:37;10.27;;;5.93;;
4585;SDS011;2305;50.118;8.952;2023-11-21T07:25:08;10.87;;;6.30;;
4585;SDS011;2305;50.118;8.952;2023-11-21T07:27:37;6.50;;;5.33;;
4585;SDS011;2305;50.118;8.952;2023-11-21T07:30:05;10.03;;;5.33;;
4585;SDS011;2305;50.118;8.952;2023-11-21T07:32:37;9.07;;;5.20;;
4585;SDS011;2305;50.118;8.952;2023-11-21T07:35:07;7.60;;;4.73;;
4585;SDS011;2305;50.118;8.952;2023-11-21T07:37:36;6.97;;;5.20;;
4585;SDS011;2305;50.118;8.952;2023-11-21T07:40:04;6.90;;;5.40;;
4585;SDS011;2305;50.118;8.952;2023-11-21T07:42:36;9.73;;;5.37;;
4585;SDS011;2305;50.118;8.952;2023-11-21T07:45:05;10.33;;;4.80;;
4585;SDS011;2305;50.118;8.952;2023-11-21T07:47:34;7.90;;;4.57;;
4585;SDS011;2305;50.118;8.952;2023-11-21T07:50:04;6.87;;;4.13;;
4585;SDS011;2305;50.118;8.952;2023-11-21T07:52:34;7.90;;;4.57;;
4585;SDS011;2305;50.118;8.952;2023-11-21T07:55:03;6.03;;;4.00;;
4585;SDS011;2305;50.118;8.952;2023-11-21T07:57:31;13.40;;;4.60;;
4585;SDS011;2305;50.118;8.952;2023-11-21T07:59:59;5.13;;;3.77;;
4585;SDS011;2305;50.118;8.952;2023-11-21T08:02:38;5.07;;;3.50;;
4585;SDS011;2305;50.118;8.952;2023-11-21T08:05:10;6.00;;;3.50;;
4585;SDS011;2305;50.118;8.952;2023-11-21T08:07:50;5.30;;;3.63;;
4585;SDS011;2305;50.118;8.952;2023-11-21T08:10:19;10.87;;;2.87;;
4585;SDS011;2305;50.118;8.952;2023-11-21T08:12:49;4.73;;;3.17;;
4585;SDS011;2305;50.118;8.952;2023-11-21T08:15:18;8.10;;;2.97;;
4585;SDS011;2305;50.118;8.952;2023-11-21T08:17:46;5.10;;;3.10;;
4585;SDS011;2305;50.118;8.952;2023-11-21T08:20:18;5.60;;;3.07;;
4585;SDS011;2305;50.118;8.952;2023-11-21T08:22:46;3.90;;;3.33;;
4585;SDS011;2305;50.118;8.952;2023-11-21T08:25:15;5.30;;;2.40;;
4585;SDS011;2305;50.118;8.952;2023-11-21T08:27:46;4.90;;;3.03;;
4585;SDS011;2305;50.118;8.952;2023-11-21T08:30:14;4.67;;;2.67;;
4585;SDS011;2305;50.118;8.952;2023-11-21T08:32:45;4.10;;;2.60;;
4585;SDS011;2305;50.118;8.952;2023-11-21T08:35:13;7.90;;;3.10;;
4585;SDS011;2305;50.118;8.952;2023-11-21T08:37:44;4.77;;;2.60;;
4585;SDS011;2305;50.118;8.952;2023-11-21T08:40:12;9.40;;;2.47;;
4585;SDS011;2305;50.118;8.952;2023-11-21T08:42:43;6.13;;;2.47;;
4585;SDS011;2305;50.118;8.952;2023-11-21T08:45:13;3.77;;;2.67;;
4585;SDS011;2305;50.118;8.952;2023-11-21T08:47:41;2.90;;;2.20;;
4585;SDS011;2305;50.118;8.952;2023-11-21T08:50:10;4.50;;;2.80;;
4585;SDS011;2305;50.118;8.952;2023-11-21T08:52:39;3.50;;;2.77;;
4585;SDS011;2305;50.118;8.952;2023-11-21T08:55:10;6.30;;;2.70;;
4585;SDS011;2305;50.118;8.952;2023-11-21T08:57:39;7.97;;;4.70;;
4585;SDS011;2305;50.118;8.952;2023-11-21T09:00:09;5.23;;;3.70;;
4585;SDS011;2305;50.118;8.952;2023-11-21T09:02:41;6.47;;;3.63;;
4585;SDS011;2305;50.118;8.952;2023-11-21T09:05:09;3.80;;;3.20;;
4585;SDS011;2305;50.118;8.952;2023-11-21T09:07:40;5.40;;;3.50;;
4585;SDS011;2305;50.118;8.952;2023-11-21T09:10:11;7.63;;;3.87;;
4585;SDS011;2305;50.118;8.952;2023-11-21T09:12:41;4.83;;;3.80;;
4585;SDS011;2305;50.118;8.952;2023-11-21T09:15:11;6.80;;;3.37;;
4585;SDS011;2305;50.118;8.952;2023-11-21T09:17:41;9.53;;;3.90;;
4585;SDS011;2305;50.118;8.952;2023-11-21T09:20:11;11.30;;;3.90;;
4585;SDS011;2305;50.118;8.952;2023-11-21T09:22:41;6.13;;;4.30;;
4585;SDS011;2305;50.118;8.952;2023-11-21T09:25:13;7.27;;;4.77;;
4585;SDS011;2305;50.118;8.952;2023-11-21T09:27:41;8.17;;;4.57;;
4585;SDS011;2305;50.118;8.952;2023-11-21T09:30:12;5.53;;;3.90;;
4585;SDS011;2305;50.118;8.952;2023-11-21T09:32:41;4.97;;;3.67;;
4585;SDS011;2305;50.118;8.952;2023-11-21T09:35:12;7.17;;;3.40;;
4585;SDS011;2305;50.118;8.952;2023-11-21T09:37:41;6.00;;;4.30;;
4585;SDS011;2305;50.118;8.952;2023-11-21T09:40:15;8.37;;;4.67;;
4585;SDS011;2305;50.118;8.952;2023-11-21T09:42:49;10.10;;;4.80;;
4585;SDS011;2305;50.118;8.952;2023-11-21T09:45:24;6.70;;;4.13;;
4585;SDS011;2305;50.118;8.952;2023-11-21T09:47:54;13.17;;;4.60;;
4585;SDS011;2305;50.118;8.952;2023-11-21T09:50:24;7.23;;;4.73;;
4585;SDS011;2305;50.118;8.952;2023-11-21T09:52:57;8.60;;;4.93;;
4585;SDS011;2305;50.118;8.952;2023-11-21T09:55:30;15.70;;;5.00;;
4585;SDS011;2305;50.118;8.952;2023-11-21T09:58:03;7.20;;;5.00;;
4585;SDS011;2305;50.118;8.952;2023-11-21T10:00:34;6.40;;;4.50;;
4585;SDS011;2305;50.118;8.952;2023-11-21T10:03:02;10.17;;;4.80;;
4585;SDS011;2305;50.118;8.952;2023-11-21T10:05:31;10.20;;;5.03;;
4585;SDS011;2305;50.118;8.952;2023-11-21T10:08:01;10.10;;;5.00;;
4585;SDS011;2305;50.118;8.952;2023-11-21T10:10:31;8.13;;;5.00;;
4585;SDS011;2305;50.118;8.952;2023-11-21T10:13:02;7.97;;;4.23;;
4585;SDS011;2305;50.118;8.952;2023-11-21T10:15:33;6.20;;;4.30;;
4585;SDS011;2305;50.118;8.952;2023-11-21T10:18:02;7.90;;;4.30;;
4585;SDS011;2305;50.118;8.952;2023-11-21T10:20:33;7.70;;;4.87;;
4585;SDS011;2305;50.118;8.952;2023-11-21T10:23:01;5.57;;;4.10;;
4585;SDS011;2305;50.118;8.952;2023-11-21T10:25:33;7.23;;;4.60;;
4585;SDS011;2305;50.118;8.952;2023-11-21T10:28:03;8.47;;;3.20;;
4585;SDS011;2305;50.118;8.952;2023-11-21T10:30:33;10.60;;;3.87;;
4585;SDS011;2305;50.118;8.952;2023-11-21T10:33:04;7.30;;;4.00;;
4585;SDS011;2305;50.118;8.952;2023-11-21T10:35:39;5.43;;;3.60;;
4585;SDS011;2305;50.118;8.952;2023-11-21T10:38:13;6.73;;;3.30;;
4585;SDS011;2305;50.118;8.952;2023-11-21T10:40:43;6.93;;;3.20;;
4585;SDS011;2305;50.118;8.952;2023-11-21T10:43:13;4.50;;;2.97;;
4585;SDS011;2305;50.118;8.952;2023-11-21T10:45:42;7.07;;;3.60;;
4585;SDS011;2305;50.118;8.952;2023-11-21T10:48:12;15.00;;;5.17;;
4585;SDS011;2305;50.118;8.952;2023-11-21T10:50:46;7.30;;;3.43;;
4585;SDS011;2305;50.118;8.952;2023-11-21T10:53:14;6.90;;;4.40;;
4585;SDS011;2305;50.118;8.952;2023-11-21T10:55:46;8.03;;;3.27;;
4585;SDS011;2305;50.118;8.952;2023-11-21T10:58:15;6.50;;;3.83;;
4585;SDS011;2305;50.118;8.952;2023-11-21T11:00:44;7.17;;;4.50;;
4585;SDS011;2305;50.118;8.952;2023-11-21T11:03:15;8.60;;;4.57;;
4585;SDS011;2305;50.118;8.952;2023-11-21T11:05:46;6.80;;;3.63;;
4585;SDS011;2305;50.118;8.952;2023-11-21T11:08:20;10.80;;;3.87;;
4585;SDS011;2305;50.118;8.952;2023-11-21T11:10:55;5.80;;;4.10;;
4585;SDS011;2305;50.118;8.952;2023-11-21T11:13:25;8.93;;;3.27;;
4585;SDS011;2305;50.118;8.952;2023-11-21T11:15:58;6.77;;;3.77;;
4585;SDS011;2305;50.118;8.952;2023-11-21T11:18:28;6.60;;;3.83;;
4585;SDS011;2305;50.118;8.952;2023-11-21T11:20:58;9.73;;;3.90;;
4585;SDS011;2305;50.118;8.952;2023-11-21T11:23:38;6.63;;;3.60;;
4585;SDS011;2305;50.118;8.952;2023-11-21T11:26:29;10.80;;;3.53;;
4585;SDS011;2305;50.118;8.952;2023-11-21T11:29:07;5.47;;;3.27;;
4585;SDS011;2305;50.118;8.952;2023-11-21T11:31:45;6.83;;;3.40;;
4585;SDS011;2305;50.118;8.952;2023-11-21T11:34:26;4.47;;;2.77;;
4585;SDS011;2305;50.118;8.952;2023-11-21T11:37:00;4.20;;;2.47;;
4585;SDS011;2305;50.118;8.952;2023-11-21T11:39:30;7.90;;;2.77;;
4585;SDS011;2305;50.118;8.952;2023-11-21T11:42:07;8.87;;;2.97;;
4585;SDS011;2305;50.118;8.952;2023-11-21T11:44:49;5.10;;;3.00;;
4585;SDS011;2305;50.118;8.952;2023-11-21T11:47:22;3.47;;;2.50;;
4585;SDS011;2305;50.118;8.952;2023-11-21T11:49:56;16.23;;;2.87;;
4585;SDS011;2305;50.118;8.952;2023-11-21T11:52:38;5.00;;;2.77;;
4585;SDS011;2305;50.118;8.952;2023-11-21T11:55:08;7.63;;;3.20;;
4585;SDS011;2305;50.118;8.952;2023-11-21T11:57:42;6.03;;;2.93;;
4585;SDS011;2305;50.118;8.952;2023-11-21T12:00:14;7.00;;;3.00;;
4585;SDS011;2305;50.118;8.952;2023-11-21T12:02:46;5.07;;;2.70;;
4585;SDS011;2305;50.118;8.952;2023-11-21T12:05:16;5.17;;;2.70;;
4585;SDS011;2305;50.118;8.952;2023-11-21T12:07:46;9.20;;;3.13;;
4585;SDS011;2305;50.118;8.952;2023-11-21T12:10:16;9.77;;;3.47;;
4585;SDS011;2305;50.118;8.952;2023-11-21T12:12:47;7.40;;;3.10;;
4585;SDS011;2305;50.118;8.952;2023-11-21T12:15:16;12.13;;;3.70;;
4585;SDS011;2305;50.118;8.952;2023-11-21T12:17:46;8.10;;;2.70;;
4585;SDS011;2305;50.118;8.952;2023-11-21T12:20:16;9.73;;;4.00;;
4585;SDS011;2305;50.118;8.952;2023-11-21T12:22:47;5.53;;;2.97;;
4585;SDS011;2305;50.118;8.952;2023-11-21T12:25:16;7.13;;;3.80;;
4585;SDS011;2305;50.118;8.952;2023-11-21T12:27:47;10.40;;;3.27;;
4585;SDS011;2305;50.118;8.952;2023-11-21T12:30:17;7.60;;;3.00;;
4585;SDS011;2305;50.118;8.952;2023-11-21T12:32:47;8.20;;;3.47;;
4585;SDS011;2305;50.118;8.952;2023-11-21T12:35:18;7.97;;;3.10;;
4585;SDS011;2305;50.118;8.952;2023-11-21T12:37:48;5.07;;;2.93;;
4585;SDS011;2305;50.118;8.952;2023-11-21T12:40:17;7.13;;;3.57;;
4585;SDS011;2305;50.118;8.952;2023-11-21T12:42:46;6.03;;;3.30;;
4585;SDS011;2305;50.118;8.952;2023-11-21T12:45:20;12.83;;;4.53;;
4585;SDS011;2305;50.118;8.952;2023-11-21T12:47:49;6.07;;;3.57;;
4585;SDS011;2305;50.118;8.952;2023-11-21T12:50:18;7.50;;;3.73;;
4585;SDS011;2305;50.118;8.952;2023-11-21T12:52:50;9.90;;;4.27;;
4585;SDS011;2305;50.118;8.952;2023-11-21T12:55:21;5.77;;;3.47;;
4585;SDS011;2305;50.118;8.952;2023-11-21T12:57:51;12.40;;;4.00;;
4585;SDS011;2305;50.118;8.952;2023-11-21T13:00:27;6.90;;;3.87;;
4585;SDS011;2305;50.118;8.952;2023-11-21T13:02:58;10.53;;;4.17;;
4585;SDS011;2305;50.118;8.952;2023-11-21T13:05:28;8.10;;;4.33;;
4585;SDS011;2305;50.118;8.952;2023-11-21T13:07:58;7.57;;;3.67;;
4585;SDS011;2305;50.118;8.952;2023-11-21T13:10:30;9.40;;;3.90;;
4585;SDS011;2305;50.118;8.952;2023-11-21T13:13:04;7.90;;;3.47;;
4585;SDS011;2305;50.118;8.952;2023-11-21T13:15:38;9.20;;;3.90;;
4585;SDS011;2305;50.118;8.952;2023-11-21T13:18:07;8.80;;;3.60;;
4585;SDS011;2305;50.118;8.952;2023-11-21T13:20:37;7.40;;;3.50;;
4585;SDS011;2305;50.118;8.952;2023-11-21T13:23:07;4.20;;;2.80;;
4585;SDS011;2305;50.118;8.952;2023-11-21T13:25:38;6.93;;;3.30;;
4585;SDS011;2305;50.118;8.952;2023-11-21T13:28:09;6.30;;;3.40;;
4585;SDS011;2305;50.118;8.952;2023-11-21T13:30:38;5.57;;;3.00;;
4585;SDS011;2305;50.118;8.952;2023-11-21T13:33:06;6.37;;;2.90;;
4585;SDS011;2305;50.118;8.952;2023-11-21T13:35:36;8.37;;;3.30;;
4585;SDS011;2305;50.118;8.952;2023-11-21T13:38:08;6.40;;;3.07;;
4585;SDS011;2305;50.118;8.952;2023-11-21T13:40:39;8.30;;;3.53;;
4585;SDS011;2305;50.118;8.952;2023-11-21T13:43:13;5.07;;;3.20;;
4585;SDS011;2305;50.118;8.952;2023-11-21T13:45:43;7.20;;;2.93;;
4585;SDS011;2305;50.118;8.952;2023-11-21T13:48:12;6.83;;;3.33;;
4585;SDS011;2305;50.118;8.952;2023-11-21T13:50:41;6.07;;;2.90;;
4585;SDS011;2305;50.118;8.952;2023-11-21T13:53:16;13.20;;;3.30;;
4585;SDS011;2305;50.118;8.952;2023-11-21T13:55:48;8.47;;;3.30;;
4585;SDS011;2305;50.118;8.952;2023-11-21T13:58:19;6.17;;;2.87;;
4585;SDS011;2305;50.118;8.952;2023-11-21T14:00:51;8.80;;;3.63;;
4585;SDS011;2305;50.118;8.952;2023-11-21T14:03:23;6.07;;;3.30;;
4585;SDS011;2305;50.118;8.952;2023-11-21T14:05:59;10.73;;;3.50;;
4585;SDS011;2305;50.118;8.952;2023-11-21T14:08:34;8.37;;;3.10;;
4585;SDS011;2305;50.118;8.952;2023-11-21T14:11:02;4.57;;;2.90;;
4585;SDS011;2305;50.118;8.952;2023-11-21T14:13:34;5.63;;;3.20;;
4585;SDS011;2305;50.118;8.952;2023-11-21T14:16:03;7.57;;;3.40;;
4585;SDS011;2305;50.118;8.952;2023-11-21T14:18:33;7.37;;;4.23;;
4585;SDS011;2305;50.118;8.952;2023-11-21T14:21:05;9.73;;;3.73;;
4585;SDS011;2305;50.118;8.952;2023-11-21T14:23:34;8.97;;;3.60;;
4585;SDS011;2305;50.118;8.952;2023-11-21T14:26:05;8.83;;;3.57;;
4585;SDS011;2305;50.118;8.952;2023-11-21T14:28:35;6.23;;;3.23;;
4585;SDS011;2305;50.118;8.952;2023-11-21T14:31:03;9.93;;;3.87;;
4585;SDS011;2305;50.118;8.952;2023-11-21T14:33:31;7.93;;;3.27;;
4585;SDS011;2305;50.118;8.952;2023-11-21T14:35:59;9.70;;;4.00;;
4585;SDS011;2305;50.118;8.952;2023-11-21T14:38:28;14.53;;;4.40;;
4585;SDS011;2305;50.118;8.952;2023-11-21T14:40:56;13.33;;;3.23;;
4585;SDS011;2305;50.118;8.952;2023-11-21T14:43:27;11.93;;;4.10;;
4585;SDS011;2305;50.118;8.952;2023-11-21T14:45:57;5.63;;;3.67;;
4585;SDS011;2305;50.118;8.952;2023-11-21T14:48:28;7.30;;;3.80;;
4585;SDS011;2305;50.118;8.952;2023-11-21T14:51:08;6.53;;;3.87;;
4585;SDS011;2305;50.118;8.952;2023-11-21T14:53:54;11.50;;;4.00;;
4585;SDS011;2305;50.118;8.952;2023-11-21T14:56:21;8.33;;;3.63;;
4585;SDS011;2305;50.118;8.952;2023-11-21T14:58:53;5.53;;;2.80;;
4585;SDS011;2305;50.118;8.952;2023-11-21T15:01:24;5.23;;;3.23;;
4585;SDS011;2305;50.118;8.952;2023-11-21T15:04:09;4.63;;;2.80;;
4585;SDS011;2305;50.118;8.952;2023-11-21T15:06:47;7.83;;;3.83;;
4585;SDS011;2305;50.118;8.952;2023-11-21T15:09:15;5.83;;;3.17;;
4585;SDS011;2305;50.118;8.952;2023-11-21T15:12:01;6.93;;;3.53;;
4585;SDS011;2305;50.118;8.952;2023-11-21T15:14:43;10.33;;;3.20;;
4585;SDS011;2305;50.118;8.952;2023-11-21T15:17:16;6.97;;;2.93;;
4585;SDS011;2305;50.118;8.952;2023-11-21T15:19:49;7.37;;;4.10;;
4585;SDS011;2305;50.118;8.952;2023-11-21T15:22:18;7.13;;;3.30;;
4585;SDS011;2305;50.118;8.952;2023-11-21T15:24:46;5.20;;;3.90;;
4585;SDS011;2305;50.118;8.952;2023-11-21T15:27:16;7.73;;;3.77;;
4585;SDS011;2305;50.118;8.952;2023-11-21T15:29:45;7.30;;;3.67;;
4585;SDS011;2305;50.118;8.952;2023-11-21T15:32:13;6.73;;;3.40;;
4585;SDS011;2305;50.118;8.952;2023-11-21T15:34:45;6.93;;;3.47;;